createdAt,value
2019-01-06T00:02:14.389Z,14.90
2019-01-06T00:05:06.910Z,14.37
2019-01-06T00:08:00.582Z,13.53
2019-01-06T00:10:51.862Z,13.37
2019-01-06T00:13:45.324Z,14.10
2019-01-06T00:16:47.947Z,13.20
2019-01-06T00:19:45.437Z,13.40
2019-01-06T00:22:38.482Z,12.70
2019-01-06T00:25:38.900Z,12.80
2019-01-06T00:28:32.609Z,13.50
2019-01-06T00:31:17.456Z,12.40
2019-01-06T00:34:23.278Z,12.30
2019-01-06T00:37:22.800Z,11.67
2019-01-06T00:40:25.367Z,12.90
2019-01-06T00:43:16.152Z,14.43
2019-01-06T00:46:18.382Z,12.63
2019-01-06T00:49:11.726Z,13.23
2019-01-06T00:52:05.388Z,13.33
2019-01-06T00:55:13.361Z,12.10
2019-01-06T00:58:16.160Z,12.47
2019-01-06T01:01:07.146Z,13.10
2019-01-06T01:03:59.678Z,15.33
2019-01-06T01:06:58.596Z,13.77
2019-01-06T01:09:51.026Z,13.63
2019-01-06T01:12:58.822Z,10.63
2019-01-06T01:15:57.732Z,10.13
2019-01-06T01:18:48.642Z,9.50
2019-01-06T01:21:40.848Z,10.10
2019-01-06T01:24:32.776Z,10.73
2019-01-06T01:27:41.638Z,10.30
2019-01-06T01:30:33.766Z,10.23
2019-01-06T01:33:25.700Z,10.37
2019-01-06T01:36:23.228Z,11.50
2019-01-06T01:39:35.285Z,10.60
2019-01-06T01:42:33.956Z,11.23
2019-01-06T01:45:39.442Z,11.50
2019-01-06T01:48:19.618Z,9.83
2019-01-06T01:51:18.994Z,11.17
2019-01-06T01:54:33.756Z,10.93
2019-01-06T01:57:17.900Z,10.80
2019-01-06T02:00:15.039Z,9.77
2019-01-06T02:03:07.813Z,10.43
2019-01-06T02:06:01.383Z,11.23
2019-01-06T02:09:07.293Z,10.23
2019-01-06T02:12:00.103Z,11.80
2019-01-06T02:14:57.200Z,11.17
2019-01-06T02:17:48.560Z,11.37
2019-01-06T02:20:45.216Z,11.40
2019-01-06T02:23:44.591Z,12.97
2019-01-06T02:26:39.548Z,11.30
2019-01-06T02:29:29.684Z,11.70
2019-01-06T02:32:24.940Z,12.07
2019-01-06T02:35:32.335Z,12.00
2019-01-06T02:38:37.120Z,11.07
2019-01-06T02:41:29.866Z,12.67
2019-01-06T02:44:35.024Z,11.47
2019-01-06T02:47:27.174Z,11.97
2019-01-06T02:50:20.803Z,10.83
2019-01-06T02:53:29.356Z,43.27
2019-01-06T02:56:27.397Z,63.17
2019-01-06T02:59:30.792Z,36.57
2019-01-06T03:02:42.775Z,21.53
2019-01-06T03:05:43.155Z,13.20
2019-01-06T03:08:36.264Z,13.13
2019-01-06T03:11:41.419Z,11.53
2019-01-06T03:14:44.353Z,9.80
2019-01-06T03:17:40.719Z,9.43
2019-01-06T03:20:33.876Z,8.67
2019-01-06T03:23:35.746Z,9.53
2019-01-06T03:26:28.125Z,8.63
2019-01-06T03:29:19.487Z,9.57
2019-01-06T03:32:15.232Z,9.40
2019-01-06T03:35:26.314Z,8.73
2019-01-06T03:38:22.068Z,8.07
2019-01-06T03:41:23.367Z,9.20
2019-01-06T03:44:16.542Z,9.00
2019-01-06T03:47:20.080Z,9.53
2019-01-06T03:50:11.143Z,9.33
2019-01-06T03:53:18.719Z,8.90
2019-01-06T03:56:27.147Z,8.87
2019-01-06T03:59:23.893Z,12.50
2019-01-06T04:02:15.074Z,10.53
2019-01-06T04:05:16.632Z,9.30
2019-01-06T04:08:07.397Z,9.60
2019-01-06T04:11:15.096Z,9.40
2019-01-06T04:14:00.226Z,8.77
2019-01-06T04:16:52.959Z,8.63
2019-01-06T04:19:44.264Z,8.30
2019-01-06T04:22:45.628Z,8.67
2019-01-06T04:25:43.253Z,8.70
2019-01-06T04:28:34.764Z,8.43
2019-01-06T04:31:27.740Z,8.53
2019-01-06T04:34:20.406Z,10.00
2019-01-06T04:37:06.618Z,9.10
2019-01-06T04:40:05.158Z,9.27
2019-01-06T04:42:49.586Z,8.70
2019-01-06T04:45:42.607Z,8.57
2019-01-06T04:48:42.204Z,8.83
2019-01-06T04:51:32.916Z,8.50
2019-01-06T04:54:34.387Z,8.83
2019-01-06T04:57:26.792Z,7.90
2019-01-06T05:00:17.668Z,8.97
2019-01-06T05:03:25.444Z,8.03
2019-01-06T05:06:24.686Z,8.80
2019-01-06T05:09:15.510Z,9.37
2019-01-06T05:12:05.173Z,9.73
2019-01-06T05:15:03.756Z,9.43
2019-01-06T05:18:01.442Z,8.63
2019-01-06T05:20:57.434Z,9.73
2019-01-06T05:23:57.151Z,9.37
2019-01-06T05:26:55.710Z,8.87
2019-01-06T05:29:48.484Z,8.97
2019-01-06T05:32:56.498Z,7.80
2019-01-06T05:35:57.914Z,9.47
2019-01-06T05:38:48.866Z,9.57
2019-01-06T05:41:50.915Z,8.20
2019-01-06T05:44:43.533Z,8.63
2019-01-06T05:47:36.208Z,8.30
2019-01-06T05:50:34.671Z,8.63
2019-01-06T05:53:27.256Z,8.80
2019-01-06T05:56:23.562Z,8.33
2019-01-06T05:59:15.192Z,8.27
2019-01-06T06:02:05.236Z,8.07
2019-01-06T06:04:54.822Z,9.60
2019-01-06T06:07:54.069Z,9.03
2019-01-06T06:11:02.907Z,8.53
2019-01-06T06:13:54.616Z,12.60
2019-01-06T06:16:54.109Z,8.53
2019-01-06T06:20:02.216Z,9.00
2019-01-06T06:22:53.836Z,9.20
2019-01-06T06:25:52.549Z,9.63
2019-01-06T06:28:48.618Z,10.47
2019-01-06T06:31:47.484Z,11.95
2019-01-06T06:34:39.462Z,11.03
2019-01-06T06:37:24.070Z,12.73
2019-01-06T06:40:17.500Z,12.20
2019-01-06T06:43:22.200Z,11.07
2019-01-06T06:46:30.588Z,10.60
2019-01-06T06:49:28.566Z,10.50
2019-01-06T06:52:19.408Z,10.07
2019-01-06T06:55:16.125Z,13.23
2019-01-06T06:58:40.061Z,10.57
2019-01-06T07:01:41.990Z,11.00
2019-01-06T07:04:33.738Z,10.50
2019-01-06T07:07:30.398Z,11.13
2019-01-06T07:10:21.744Z,11.67
2019-01-06T07:13:20.577Z,10.93
2019-01-06T07:16:04.476Z,10.93
2019-01-06T07:18:55.121Z,11.27
2019-01-06T07:22:03.806Z,13.03
2019-01-06T07:24:55.454Z,11.63
2019-01-06T07:27:48.376Z,14.63
2019-01-06T07:30:36.806Z,13.40
2019-01-06T07:33:33.566Z,15.27
2019-01-06T07:36:26.245Z,12.70
2019-01-06T07:39:20.348Z,13.20
2019-01-06T07:42:16.857Z,14.73
2019-01-06T07:45:16.460Z,13.50
2019-01-06T07:48:23.130Z,14.20
2019-01-06T07:51:09.410Z,13.13
2019-01-06T07:54:03.768Z,14.00
2019-01-06T07:57:06.698Z,13.87
2019-01-06T08:00:15.674Z,15.03
2019-01-06T08:03:21.536Z,18.40
2019-01-06T08:06:23.139Z,15.03
2019-01-06T08:09:23.134Z,22.17
2019-01-06T08:12:21.887Z,24.57
2019-01-06T08:15:31.238Z,36.07
2019-01-06T08:18:43.170Z,20.93
2019-01-06T08:21:35.374Z,22.17
2019-01-06T08:24:32.464Z,21.17
2019-01-06T08:27:24.918Z,21.17
2019-01-06T08:30:24.217Z,21.77
2019-01-06T08:33:20.047Z,21.67
2019-01-06T08:36:31.428Z,23.57
2019-01-06T08:39:42.805Z,24.63
2019-01-06T08:42:33.556Z,19.60
2019-01-06T08:45:43.375Z,20.63
2019-01-06T08:48:43.344Z,19.60
2019-01-06T08:51:40.605Z,19.17
2019-01-06T08:54:40.126Z,18.07
2019-01-06T08:57:33.384Z,14.53
2019-01-06T09:00:24.094Z,16.63
2019-01-06T09:03:21.972Z,17.07
2019-01-06T09:06:21.075Z,18.10
2019-01-06T09:09:30.140Z,21.47
2019-01-06T09:12:43.064Z,17.27
2019-01-06T09:15:32.071Z,17.63
2019-01-06T09:18:37.227Z,18.03
2019-01-06T09:21:31.412Z,17.10
2019-01-06T09:24:15.432Z,18.37
2019-01-06T09:27:08.682Z,16.43
2019-01-06T09:30:05.615Z,15.47
2019-01-06T09:33:00.418Z,16.47
2019-01-06T09:35:53.601Z,16.87
2019-01-06T09:38:46.860Z,15.17
2019-01-06T09:41:39.421Z,17.10
2019-01-06T09:44:37.096Z,17.57
2019-01-06T09:47:29.264Z,12.50
2019-01-06T09:50:32.503Z,14.27
2019-01-06T09:53:37.029Z,14.00
2019-01-06T09:59:57.096Z,13.77
2019-01-06T10:02:50.582Z,19.17
2019-01-06T10:05:47.676Z,21.57
2019-01-06T10:08:44.282Z,19.07
2019-01-06T10:11:47.448Z,21.73
2019-01-06T10:14:38.670Z,19.80
2019-01-06T10:17:35.764Z,18.07
2019-01-06T10:20:29.085Z,18.90
2019-01-06T10:23:22.427Z,19.57
2019-01-06T10:26:26.008Z,19.53
2019-01-06T10:29:22.568Z,18.43
2019-01-06T10:32:13.652Z,18.53
2019-01-06T10:35:11.103Z,16.83
2019-01-06T10:38:22.148Z,16.10
2019-01-06T10:41:28.613Z,14.73
2019-01-06T10:44:19.940Z,16.40
2019-01-06T10:47:13.677Z,14.70
2019-01-06T10:50:04.958Z,14.47
2019-01-06T10:52:57.238Z,14.07
2019-01-06T10:55:54.327Z,14.10
2019-01-06T10:58:57.258Z,13.53
2019-01-06T11:02:03.573Z,13.90
2019-01-06T11:04:55.658Z,17.40
2019-01-06T11:08:02.808Z,19.67
2019-01-06T11:10:54.800Z,20.60
2019-01-06T11:13:44.792Z,21.83
2019-01-06T11:16:37.686Z,25.00
2019-01-06T11:19:33.430Z,25.90
2019-01-06T11:22:25.751Z,26.87
2019-01-06T11:25:23.096Z,23.90
2019-01-06T11:28:30.256Z,22.30
2019-01-06T11:31:37.740Z,25.33
2019-01-06T11:34:40.003Z,24.77
2019-01-06T11:37:36.881Z,26.30
2019-01-06T11:40:30.735Z,27.67
2019-01-06T11:43:22.501Z,29.50
2019-01-06T11:46:14.262Z,28.07
2019-01-06T11:49:10.442Z,25.13
2019-01-06T11:52:18.287Z,24.87
2019-01-06T11:55:11.464Z,28.50
2019-01-06T11:58:10.711Z,57.87
2019-01-06T12:01:05.456Z,24.57
2019-01-06T12:03:55.292Z,19.90
2019-01-06T12:06:54.407Z,19.97
2019-01-06T12:09:47.046Z,20.53
2019-01-06T12:12:37.844Z,20.00
2019-01-06T12:15:28.834Z,18.93
2019-01-06T12:18:31.013Z,20.87
2019-01-06T12:21:26.156Z,21.50
2019-01-06T12:24:20.480Z,17.83
2019-01-06T12:27:28.335Z,27.93
2019-01-06T12:30:24.574Z,18.93
2019-01-06T12:33:34.488Z,19.63
2019-01-06T12:36:25.744Z,20.57
2019-01-06T12:39:19.106Z,18.47
2019-01-06T12:42:11.329Z,18.97
2019-01-06T12:45:04.831Z,20.43
2019-01-06T12:47:56.195Z,18.87
2019-01-06T12:50:41.402Z,16.47
2019-01-06T12:53:39.137Z,17.90
2019-01-06T12:56:24.715Z,19.10
2019-01-06T12:59:36.157Z,21.63
2019-01-06T13:02:40.733Z,20.53
2019-01-06T13:05:34.119Z,21.60
2019-01-06T13:08:29.858Z,21.07
2019-01-06T13:11:36.288Z,22.73
2019-01-06T13:14:35.154Z,18.80
2019-01-06T13:17:26.183Z,21.70
2019-01-06T13:20:28.953Z,21.37
2019-01-06T13:23:38.136Z,22.33
2019-01-06T13:26:34.878Z,20.30
2019-01-06T13:29:32.219Z,19.20
2019-01-06T13:32:26.547Z,18.77
2019-01-06T13:35:18.990Z,17.97
2019-01-06T13:38:22.034Z,20.57
2019-01-06T13:41:13.305Z,18.63
2019-01-06T13:44:07.380Z,19.40
2019-01-06T13:47:03.340Z,19.23
2019-01-06T13:50:14.090Z,22.00
2019-01-06T13:53:09.194Z,17.03
2019-01-06T13:55:52.429Z,16.70
2019-01-06T13:58:49.953Z,14.63
2019-01-06T14:01:44.008Z,11.30
2019-01-06T14:04:36.476Z,10.13
2019-01-06T14:07:32.510Z,15.13
2019-01-06T14:10:23.798Z,12.30
2019-01-06T14:13:15.403Z,12.40
2019-01-06T14:16:20.404Z,13.43
2019-01-06T14:19:23.487Z,11.37
2019-01-06T14:22:22.601Z,11.33
2019-01-06T14:25:15.448Z,12.50
2019-01-06T14:28:06.538Z,14.90
2019-01-06T14:31:07.153Z,12.20
2019-01-06T14:34:19.574Z,11.90
2019-01-06T14:37:28.792Z,11.27
2019-01-06T14:40:18.274Z,12.07
2019-01-06T14:43:22.604Z,11.93
2019-01-06T14:46:22.133Z,11.73
2019-01-06T14:49:20.862Z,13.00
2019-01-06T14:52:32.347Z,14.03
2019-01-06T14:55:42.548Z,14.37
2019-01-06T14:58:33.220Z,13.63
2019-01-06T15:01:25.972Z,13.77
2019-01-06T15:04:35.621Z,13.67
2019-01-06T15:07:35.290Z,15.17
2019-01-06T15:10:28.970Z,16.80
2019-01-06T15:13:22.671Z,15.60
2019-01-06T15:16:23.764Z,15.20
2019-01-06T15:19:15.976Z,14.70
2019-01-06T15:22:14.840Z,29.57
2019-01-06T15:25:06.935Z,21.00
2019-01-06T15:27:56.824Z,16.13
2019-01-06T15:30:49.984Z,15.03
2019-01-06T15:33:36.815Z,15.23
2019-01-06T15:36:26.825Z,15.87
2019-01-06T15:39:16.966Z,16.57
2019-01-06T15:42:04.781Z,21.00
2019-01-06T15:44:48.827Z,17.50
2019-01-06T15:47:48.461Z,18.80
2019-01-06T15:50:46.383Z,17.20
2019-01-06T15:53:39.233Z,20.47
2019-01-06T15:56:22.649Z,16.87
2019-01-06T15:59:31.170Z,18.50
2019-01-06T16:02:40.239Z,18.60
2019-01-06T16:05:36.494Z,19.97
2019-01-06T16:08:33.666Z,21.33
2019-01-06T16:11:27.908Z,21.13
2019-01-06T16:14:32.981Z,21.47
2019-01-06T16:17:26.879Z,22.77
2019-01-06T16:20:13.079Z,21.23
2019-01-06T16:22:59.890Z,23.73
2019-01-06T16:26:02.363Z,20.97
2019-01-06T16:29:02.135Z,25.80
2019-01-06T16:32:03.629Z,33.40
2019-01-06T16:34:56.952Z,35.30
2019-01-06T16:37:59.192Z,36.20
2019-01-06T16:40:51.382Z,37.80
2019-01-06T16:43:42.490Z,43.07
2019-01-06T16:46:39.495Z,65.80
2019-01-06T16:49:32.282Z,50.00
2019-01-06T16:52:40.852Z,49.63
2019-01-06T16:55:39.265Z,50.50
2019-01-06T16:58:37.317Z,51.27
2019-01-06T17:01:28.276Z,51.27
2019-01-06T17:04:34.017Z,49.10
2019-01-06T17:07:33.321Z,58.47
2019-01-06T17:10:31.598Z,54.27
2019-01-06T17:13:25.357Z,58.33
2019-01-06T17:16:17.721Z,59.37
2019-01-06T17:19:13.687Z,56.93
2019-01-06T17:22:11.442Z,57.43
2019-01-06T17:25:02.774Z,53.70
2019-01-06T17:28:11.583Z,54.20
2019-01-06T17:31:10.484Z,52.27
2019-01-06T17:34:14.597Z,55.17
2019-01-06T17:37:07.790Z,50.03
2019-01-06T17:40:28.770Z,50.73
2019-01-06T17:43:27.650Z,45.17
2019-01-06T17:46:35.821Z,46.37
2019-01-06T17:49:28.466Z,46.10
2019-01-06T17:52:39.863Z,54.23
2019-01-06T17:55:52.005Z,46.50
2019-01-06T17:58:42.482Z,50.50
2019-01-06T18:04:16.843Z,54.60
2019-01-06T18:07:09.258Z,70.03
2019-01-06T18:10:02.991Z,77.20
2019-01-06T18:13:09.417Z,58.27
2019-01-06T18:16:04.341Z,55.57
2019-01-06T18:18:57.948Z,54.00
2019-01-06T18:21:59.319Z,50.30
2019-01-06T18:24:53.288Z,48.43
2019-01-06T18:27:46.697Z,51.50
2019-01-06T18:30:39.012Z,52.27
2019-01-06T18:33:31.945Z,52.73
2019-01-06T18:36:32.087Z,55.33
2019-01-06T18:39:27.282Z,52.27
2019-01-06T18:42:19.318Z,53.03
2019-01-06T18:45:15.091Z,50.37
2019-01-06T18:48:23.370Z,52.40
2019-01-06T18:51:18.941Z,51.50
2019-01-06T18:54:11.130Z,48.57
2019-01-06T18:57:12.011Z,45.37
2019-01-06T19:00:21.776Z,43.17
2019-01-06T19:03:35.871Z,42.13
2019-01-06T19:06:40.984Z,45.87
2019-01-06T19:09:40.088Z,49.37
2019-01-06T19:12:42.660Z,53.80
2019-01-06T19:15:36.571Z,49.00
2019-01-06T19:18:24.971Z,48.33
2019-01-06T19:21:26.926Z,46.33
2019-01-06T19:24:43.622Z,44.33
2019-01-06T19:27:39.588Z,42.17
2019-01-06T19:30:31.682Z,39.90
2019-01-06T19:33:24.402Z,40.43
2019-01-06T19:36:18.607Z,38.47
2019-01-06T19:39:11.981Z,41.40
2019-01-06T19:42:11.114Z,40.53
2019-01-06T19:45:10.226Z,39.30
2019-01-06T19:48:05.384Z,26.93
2019-01-06T19:50:59.264Z,32.23
2019-01-06T19:53:50.498Z,28.60
2019-01-06T19:56:45.060Z,30.13
2019-01-06T19:59:37.434Z,39.27
2019-01-06T20:02:30.508Z,39.10
2019-01-06T20:05:28.133Z,35.50
2019-01-06T20:08:24.844Z,31.60
2019-01-06T20:11:19.049Z,28.70
2019-01-06T20:14:18.578Z,29.33
2019-01-06T20:17:12.537Z,27.03
2019-01-06T20:20:06.142Z,26.13
2019-01-06T20:23:01.723Z,21.70
2019-01-06T20:26:17.962Z,24.13
2019-01-06T20:29:32.943Z,24.53
2019-01-06T20:32:39.262Z,27.80
2019-01-06T20:35:37.995Z,32.17
2019-01-06T20:38:31.001Z,34.73
2019-01-06T20:41:34.244Z,30.63
2019-01-06T20:44:28.509Z,29.17
2019-01-06T20:47:25.208Z,21.60
2019-01-06T20:50:18.044Z,18.13
2019-01-06T20:53:17.370Z,22.07
2019-01-06T20:56:20.347Z,18.57
2019-01-06T20:59:29.399Z,20.30
2019-01-06T21:02:48.404Z,20.13
2019-01-06T21:06:00.540Z,20.60
2019-01-06T21:08:54.690Z,23.97
2019-01-06T21:11:52.786Z,27.33
2019-01-06T21:14:45.626Z,30.70
2019-01-06T21:17:39.290Z,30.73
2019-01-06T21:20:32.668Z,27.23
2019-01-06T21:23:25.170Z,23.40
2019-01-06T21:26:31.992Z,23.90
2019-01-06T21:29:39.954Z,25.60
2019-01-06T21:32:37.371Z,27.43
2019-01-06T21:35:34.578Z,27.73
2019-01-06T21:38:27.732Z,29.77
2019-01-06T21:41:19.544Z,28.97
2019-01-06T21:44:15.292Z,28.07
2019-01-06T21:47:14.536Z,27.97
2019-01-06T21:50:00.002Z,27.90
2019-01-06T21:53:03.311Z,26.57
2019-01-06T21:55:57.508Z,25.10
2019-01-06T21:58:50.081Z,27.17
2019-01-06T22:01:44.062Z,28.13
2019-01-06T22:04:36.074Z,28.53
2019-01-06T22:07:31.913Z,31.47
2019-01-06T22:10:45.362Z,30.80
2019-01-06T22:13:43.714Z,35.27
2019-01-06T22:16:35.362Z,33.90
2019-01-06T22:19:30.938Z,32.23
2019-01-06T22:22:17.686Z,36.17
2019-01-06T22:25:22.316Z,46.70
2019-01-06T22:28:31.850Z,36.13
2019-01-06T22:31:27.699Z,33.27
2019-01-06T22:34:37.843Z,33.70
2019-01-06T22:37:30.458Z,31.57
2019-01-06T22:40:22.404Z,33.80
2019-01-06T22:43:21.866Z,33.53
2019-01-06T22:46:15.810Z,32.53
2019-01-06T22:49:08.962Z,33.37
2019-01-06T22:52:12.534Z,32.60
2019-01-06T22:55:09.275Z,32.50
2019-01-06T22:58:05.604Z,34.40
2019-01-06T23:01:08.377Z,34.83
2019-01-06T23:04:02.558Z,33.07
2019-01-06T23:07:03.220Z,34.03
2019-01-06T23:09:55.750Z,35.17
2019-01-06T23:12:59.715Z,35.80
2019-01-06T23:15:53.308Z,34.20
2019-01-06T23:18:59.880Z,34.27
2019-01-06T23:21:52.122Z,34.70
2019-01-06T23:24:45.186Z,34.53
2019-01-06T23:27:45.070Z,33.73
2019-01-06T23:30:51.504Z,32.93
2019-01-06T23:33:43.586Z,32.53
2019-01-06T23:36:33.224Z,29.80
2019-01-06T23:39:44.982Z,30.33
2019-01-06T23:42:44.521Z,29.17
2019-01-06T23:45:38.343Z,28.60
2019-01-06T23:48:36.562Z,25.77
2019-01-06T23:51:40.604Z,26.53
2019-01-06T23:54:53.358Z,26.20
2019-01-06T23:57:47.743Z,23.20
